sensor_id;sensor_type;location;lat;lon;timestamp;P1;durP1;ratioP1;P2;durP2;ratioP2
58468;SDS011;44257;44.804;10.220;2023-03-12T00:00:34;36.08;;;16.42;;
58468;SDS011;44257;44.804;10.220;2023-03-12T00:03:00;34.25;;;15.40;;
58468;SDS011;44257;44.804;10.220;2023-03-12T00:05:26;33.25;;;15.30;;
58468;SDS011;44257;44.804;10.220;2023-03-12T00:07:52;28.50;;;15.05;;
58468;SDS011;44257;44.804;10.220;2023-03-12T00:10:18;30.33;;;13.95;;
58468;SDS011;44257;44.804;10.220;2023-03-12T00:12:45;29.90;;;13.70;;
58468;SDS011;44257;44.804;10.220;2023-03-12T00:15:11;28.90;;;14.50;;
58468;SDS011;44257;44.804;10.220;2023-03-12T00:17:37;27.88;;;13.80;;
58468;SDS011;44257;44.804;10.220;2023-03-12T00:20:03;29.58;;;12.65;;
58468;SDS011;44257;44.804;10.220;2023-03-12T00:22:31;28.40;;;13.75;;
58468;SDS011;44257;44.804;10.220;2023-03-12T00:24:58;29.95;;;14.80;;
58468;SDS011;44257;44.804;10.220;2023-03-12T00:27:24;28.52;;;13.25;;
58468;SDS011;44257;44.804;10.220;2023-03-12T00:29:50;25.95;;;13.15;;
58468;SDS011;44257;44.804;10.220;2023-03-12T00:32:17;28.88;;;12.75;;
58468;SDS011;44257;44.804;10.220;2023-03-12T00:34:43;32.80;;;13.75;;
58468;SDS011;44257;44.804;10.220;2023-03-12T00:37:14;30.42;;;13.93;;
58468;SDS011;44257;44.804;10.220;2023-03-12T00:39:40;26.10;;;13.60;;
58468;SDS011;44257;44.804;10.220;2023-03-12T00:42:06;27.02;;;13.35;;
58468;SDS011;44257;44.804;10.220;2023-03-12T00:44:32;27.35;;;12.70;;
58468;SDS011;44257;44.804;10.220;2023-03-12T00:46:58;33.30;;;14.68;;
58468;SDS011;44257;44.804;10.220;2023-03-12T00:49:24;30.02;;;12.57;;
58468;SDS011;44257;44.804;10.220;2023-03-12T00:51:50;28.70;;;13.45;;
58468;SDS011;44257;44.804;10.220;2023-03-12T00:54:17;25.27;;;12.48;;
58468;SDS011;44257;44.804;10.220;2023-03-12T00:56:43;28.77;;;11.90;;
58468;SDS011;44257;44.804;10.220;2023-03-12T00:59:11;30.30;;;13.32;;
58468;SDS011;44257;44.804;10.220;2023-03-12T01:01:38;30.42;;;13.95;;
58468;SDS011;44257;44.804;10.220;2023-03-12T01:04:04;20.92;;;11.68;;
58468;SDS011;44257;44.804;10.220;2023-03-12T01:06:30;29.08;;;12.88;;
58468;SDS011;44257;44.804;10.220;2023-03-12T01:08:56;18.90;;;11.15;;
58468;SDS011;44257;44.804;10.220;2023-03-12T01:11:23;31.65;;;13.30;;
58468;SDS011;44257;44.804;10.220;2023-03-12T01:13:49;30.15;;;12.82;;
58468;SDS011;44257;44.804;10.220;2023-03-12T01:16:16;27.40;;;14.13;;
58468;SDS011;44257;44.804;10.220;2023-03-12T01:18:42;29.17;;;13.15;;
58468;SDS011;44257;44.804;10.220;2023-03-12T01:21:08;30.98;;;13.65;;
58468;SDS011;44257;44.804;10.220;2023-03-12T01:23:34;32.95;;;12.65;;
58468;SDS011;44257;44.804;10.220;2023-03-12T01:26:01;32.55;;;12.88;;
58468;SDS011;44257;44.804;10.220;2023-03-12T01:28:27;30.80;;;13.10;;
58468;SDS011;44257;44.804;10.220;2023-03-12T01:30:53;28.08;;;13.40;;
58468;SDS011;44257;44.804;10.220;2023-03-12T01:33:19;31.30;;;14.45;;
58468;SDS011;44257;44.804;10.220;2023-03-12T01:35:47;30.55;;;14.15;;
58468;SDS011;44257;44.804;10.220;2023-03-12T01:38:13;34.50;;;14.02;;
58468;SDS011;44257;44.804;10.220;2023-03-12T01:40:40;30.77;;;13.32;;
58468;SDS011;44257;44.804;10.220;2023-03-12T01:43:21;29.30;;;13.32;;
58468;SDS011;44257;44.804;10.220;2023-03-12T01:46:08;28.08;;;13.15;;
58468;SDS011;44257;44.804;10.220;2023-03-12T01:49:01;29.83;;;13.02;;
58468;SDS011;44257;44.804;10.220;2023-03-12T01:51:44;28.20;;;12.82;;
58468;SDS011;44257;44.804;10.220;2023-03-12T01:56:48;31.55;;;14.95;;
58468;SDS011;44257;44.804;10.220;2023-03-12T01:59:17;31.75;;;13.48;;
58468;SDS011;44257;44.804;10.220;2023-03-12T02:01:47;24.95;;;11.73;;
58468;SDS011;44257;44.804;10.220;2023-03-12T02:04:15;26.35;;;11.73;;
58468;SDS011;44257;44.804;10.220;2023-03-12T02:06:45;24.77;;;11.70;;
58468;SDS011;44257;44.804;10.220;2023-03-12T02:09:16;28.25;;;12.13;;
58468;SDS011;44257;44.804;10.220;2023-03-12T02:11:45;26.55;;;12.73;;
58468;SDS011;44257;44.804;10.220;2023-03-12T02:14:12;28.80;;;12.10;;
58468;SDS011;44257;44.804;10.220;2023-03-12T02:16:37;27.70;;;11.73;;
58468;SDS011;44257;44.804;10.220;2023-03-12T02:19:05;24.58;;;12.27;;
58468;SDS011;44257;44.804;10.220;2023-03-12T02:21:36;22.02;;;11.15;;
58468;SDS011;44257;44.804;10.220;2023-03-12T02:26:36;23.05;;;12.27;;
58468;SDS011;44257;44.804;10.220;2023-03-12T02:29:04;32.30;;;13.18;;
58468;SDS011;44257;44.804;10.220;2023-03-12T02:31:36;27.40;;;11.73;;
58468;SDS011;44257;44.804;10.220;2023-03-12T02:34:07;26.95;;;12.95;;
58468;SDS011;44257;44.804;10.220;2023-03-12T02:36:34;30.88;;;14.15;;
58468;SDS011;44257;44.804;10.220;2023-03-12T02:39:00;23.83;;;12.40;;
58468;SDS011;44257;44.804;10.220;2023-03-12T02:41:37;25.42;;;11.73;;
58468;SDS011;44257;44.804;10.220;2023-03-12T02:46:42;27.90;;;12.35;;
58468;SDS011;44257;44.804;10.220;2023-03-12T02:49:10;22.27;;;10.82;;
58468;SDS011;44257;44.804;10.220;2023-03-12T02:51:38;24.42;;;11.85;;
58468;SDS011;44257;44.804;10.220;2023-03-12T02:54:05;22.33;;;10.40;;
58468;SDS011;44257;44.804;10.220;2023-03-12T02:56:31;24.42;;;12.25;;
58468;SDS011;44257;44.804;10.220;2023-03-12T02:58:57;24.92;;;13.90;;
58468;SDS011;44257;44.804;10.220;2023-03-12T03:01:24;26.92;;;13.00;;
58468;SDS011;44257;44.804;10.220;2023-03-12T03:03:50;25.25;;;11.30;;
58468;SDS011;44257;44.804;10.220;2023-03-12T03:06:16;25.55;;;13.00;;
58468;SDS011;44257;44.804;10.220;2023-03-12T03:08:42;25.88;;;12.43;;
58468;SDS011;44257;44.804;10.220;2023-03-12T03:11:08;25.10;;;12.30;;
58468;SDS011;44257;44.804;10.220;2023-03-12T03:13:34;21.88;;;10.50;;
58468;SDS011;44257;44.804;10.220;2023-03-12T03:16:00;23.92;;;12.23;;
58468;SDS011;44257;44.804;10.220;2023-03-12T03:18:28;23.75;;;11.20;;
58468;SDS011;44257;44.804;10.220;2023-03-12T03:20:59;22.55;;;11.82;;
58468;SDS011;44257;44.804;10.220;2023-03-12T03:23:28;32.83;;;13.10;;
58468;SDS011;44257;44.804;10.220;2023-03-12T03:25:55;23.98;;;11.75;;
58468;SDS011;44257;44.804;10.220;2023-03-12T03:28:22;21.60;;;11.40;;
58468;SDS011;44257;44.804;10.220;2023-03-12T03:30:52;24.73;;;13.25;;
58468;SDS011;44257;44.804;10.220;2023-03-12T03:33:19;23.42;;;11.95;;
58468;SDS011;44257;44.804;10.220;2023-03-12T03:35:46;21.30;;;10.60;;
58468;SDS011;44257;44.804;10.220;2023-03-12T03:38:13;25.33;;;12.30;;
58468;SDS011;44257;44.804;10.220;2023-03-12T03:40:38;21.73;;;11.40;;
58468;SDS011;44257;44.804;10.220;2023-03-12T03:43:04;24.42;;;12.77;;
58468;SDS011;44257;44.804;10.220;2023-03-12T03:45:30;26.45;;;13.50;;
58468;SDS011;44257;44.804;10.220;2023-03-12T03:47:56;27.40;;;13.55;;
58468;SDS011;44257;44.804;10.220;2023-03-12T03:50:22;28.73;;;13.57;;
58468;SDS011;44257;44.804;10.220;2023-03-12T03:52:48;25.50;;;12.52;;
58468;SDS011;44257;44.804;10.220;2023-03-12T03:55:14;29.65;;;13.15;;
58468;SDS011;44257;44.804;10.220;2023-03-12T03:57:40;23.05;;;11.90;;
58468;SDS011;44257;44.804;10.220;2023-03-12T04:00:07;28.20;;;11.63;;
58468;SDS011;44257;44.804;10.220;2023-03-12T04:02:40;23.90;;;11.57;;
58468;SDS011;44257;44.804;10.220;2023-03-12T04:05:08;25.42;;;11.02;;
58468;SDS011;44257;44.804;10.220;2023-03-12T04:07:35;22.83;;;11.38;;
58468;SDS011;44257;44.804;10.220;2023-03-12T04:10:02;25.63;;;11.23;;
58468;SDS011;44257;44.804;10.220;2023-03-12T04:12:28;25.80;;;11.43;;
58468;SDS011;44257;44.804;10.220;2023-03-12T04:14:54;20.83;;;10.55;;
58468;SDS011;44257;44.804;10.220;2023-03-12T04:17:20;19.50;;;9.85;;
58468;SDS011;44257;44.804;10.220;2023-03-12T04:19:47;24.30;;;9.27;;
58468;SDS011;44257;44.804;10.220;2023-03-12T04:22:12;22.95;;;11.80;;
58468;SDS011;44257;44.804;10.220;2023-03-12T04:24:38;16.58;;;8.30;;
58468;SDS011;44257;44.804;10.220;2023-03-12T04:27:04;20.35;;;9.70;;
58468;SDS011;44257;44.804;10.220;2023-03-12T04:29:32;19.23;;;9.20;;
58468;SDS011;44257;44.804;10.220;2023-03-12T04:31:58;24.30;;;10.80;;
58468;SDS011;44257;44.804;10.220;2023-03-12T04:34:23;15.07;;;8.07;;
58468;SDS011;44257;44.804;10.220;2023-03-12T04:36:51;19.88;;;7.82;;
58468;SDS011;44257;44.804;10.220;2023-03-12T04:39:18;20.23;;;8.52;;
58468;SDS011;44257;44.804;10.220;2023-03-12T04:41:45;22.02;;;8.73;;
58468;SDS011;44257;44.804;10.220;2023-03-12T04:44:13;17.40;;;8.20;;
58468;SDS011;44257;44.804;10.220;2023-03-12T04:46:41;16.15;;;7.55;;
58468;SDS011;44257;44.804;10.220;2023-03-12T04:49:09;19.42;;;7.47;;
58468;SDS011;44257;44.804;10.220;2023-03-12T04:51:37;17.25;;;7.53;;
58468;SDS011;44257;44.804;10.220;2023-03-12T04:54:04;16.52;;;6.90;;
58468;SDS011;44257;44.804;10.220;2023-03-12T04:56:31;12.95;;;7.00;;
58468;SDS011;44257;44.804;10.220;2023-03-12T04:58:57;14.90;;;7.32;;
58468;SDS011;44257;44.804;10.220;2023-03-12T05:01:30;14.15;;;7.78;;
58468;SDS011;44257;44.804;10.220;2023-03-12T05:03:57;11.52;;;6.28;;
58468;SDS011;44257;44.804;10.220;2023-03-12T05:06:23;12.55;;;6.90;;
58468;SDS011;44257;44.804;10.220;2023-03-12T05:08:51;14.30;;;6.82;;
58468;SDS011;44257;44.804;10.220;2023-03-12T05:11:17;16.85;;;7.40;;
58468;SDS011;44257;44.804;10.220;2023-03-12T05:13:44;12.32;;;5.90;;
58468;SDS011;44257;44.804;10.220;2023-03-12T05:16:10;13.75;;;6.88;;
58468;SDS011;44257;44.804;10.220;2023-03-12T05:18:37;16.92;;;7.10;;
58468;SDS011;44257;44.804;10.220;2023-03-12T05:21:05;14.02;;;6.22;;
58468;SDS011;44257;44.804;10.220;2023-03-12T05:23:32;11.27;;;5.93;;
58468;SDS011;44257;44.804;10.220;2023-03-12T05:25:59;10.73;;;6.80;;
58468;SDS011;44257;44.804;10.220;2023-03-12T05:28:26;12.43;;;5.70;;
58468;SDS011;44257;44.804;10.220;2023-03-12T05:30:55;10.07;;;5.85;;
58468;SDS011;44257;44.804;10.220;2023-03-12T05:33:22;16.52;;;6.40;;
58468;SDS011;44257;44.804;10.220;2023-03-12T05:35:49;15.63;;;7.10;;
58468;SDS011;44257;44.804;10.220;2023-03-12T05:38:15;11.40;;;6.05;;
58468;SDS011;44257;44.804;10.220;2023-03-12T05:40:41;15.13;;;6.82;;
58468;SDS011;44257;44.804;10.220;2023-03-12T05:43:08;11.90;;;6.05;;
58468;SDS011;44257;44.804;10.220;2023-03-12T05:45:34;11.95;;;6.45;;
58468;SDS011;44257;44.804;10.220;2023-03-12T05:48:00;11.32;;;6.13;;
58468;SDS011;44257;44.804;10.220;2023-03-12T05:50:27;13.25;;;7.00;;
58468;SDS011;44257;44.804;10.220;2023-03-12T05:52:53;12.68;;;6.25;;
58468;SDS011;44257;44.804;10.220;2023-03-12T05:55:19;13.77;;;6.32;;
58468;SDS011;44257;44.804;10.220;2023-03-12T05:57:45;13.45;;;5.93;;
58468;SDS011;44257;44.804;10.220;2023-03-12T06:00:13;11.25;;;5.97;;
58468;SDS011;44257;44.804;10.220;2023-03-12T06:02:42;12.80;;;5.93;;
58468;SDS011;44257;44.804;10.220;2023-03-12T06:05:09;15.25;;;5.97;;
58468;SDS011;44257;44.804;10.220;2023-03-12T06:07:35;11.50;;;5.97;;
58468;SDS011;44257;44.804;10.220;2023-03-12T06:10:02;16.17;;;5.60;;
58468;SDS011;44257;44.804;10.220;2023-03-12T06:12:28;14.15;;;6.78;;
58468;SDS011;44257;44.804;10.220;2023-03-12T06:14:54;14.18;;;8.13;;
58468;SDS011;44257;44.804;10.220;2023-03-12T06:17:21;12.10;;;7.22;;
58468;SDS011;44257;44.804;10.220;2023-03-12T06:19:49;14.10;;;7.13;;
58468;SDS011;44257;44.804;10.220;2023-03-12T06:22:18;11.73;;;5.40;;
58468;SDS011;44257;44.804;10.220;2023-03-12T06:24:44;11.27;;;5.78;;
58468;SDS011;44257;44.804;10.220;2023-03-12T06:27:14;12.00;;;6.30;;
58468;SDS011;44257;44.804;10.220;2023-03-12T06:29:40;11.68;;;5.53;;
58468;SDS011;44257;44.804;10.220;2023-03-12T06:32:06;11.65;;;6.80;;
58468;SDS011;44257;44.804;10.220;2023-03-12T06:34:33;21.55;;;8.45;;
58468;SDS011;44257;44.804;10.220;2023-03-12T06:36:59;13.52;;;7.18;;
58468;SDS011;44257;44.804;10.220;2023-03-12T06:39:25;10.57;;;5.60;;
58468;SDS011;44257;44.804;10.220;2023-03-12T06:41:51;11.43;;;5.80;;
58468;SDS011;44257;44.804;10.220;2023-03-12T06:44:17;11.85;;;5.20;;
58468;SDS011;44257;44.804;10.220;2023-03-12T06:46:42;9.65;;;4.93;;
58468;SDS011;44257;44.804;10.220;2023-03-12T06:49:09;11.68;;;4.78;;
58468;SDS011;44257;44.804;10.220;2023-03-12T06:51:35;9.40;;;4.45;;
58468;SDS011;44257;44.804;10.220;2023-03-12T06:54:01;9.27;;;4.13;;
58468;SDS011;44257;44.804;10.220;2023-03-12T06:56:28;9.48;;;4.80;;
58468;SDS011;44257;44.804;10.220;2023-03-12T06:58:54;8.93;;;4.97;;
58468;SDS011;44257;44.804;10.220;2023-03-12T07:01:20;8.70;;;4.00;;
58468;SDS011;44257;44.804;10.220;2023-03-12T07:03:46;6.60;;;3.83;;
58468;SDS011;44257;44.804;10.220;2023-03-12T07:06:17;10.95;;;4.38;;
58468;SDS011;44257;44.804;10.220;2023-03-12T07:11:11;5.55;;;3.50;;
58468;SDS011;44257;44.804;10.220;2023-03-12T07:13:37;12.13;;;3.95;;
58468;SDS011;44257;44.804;10.220;2023-03-12T07:16:03;7.50;;;3.72;;
58468;SDS011;44257;44.804;10.220;2023-03-12T07:18:30;5.97;;;3.70;;
58468;SDS011;44257;44.804;10.220;2023-03-12T07:20:56;10.98;;;3.97;;
58468;SDS011;44257;44.804;10.220;2023-03-12T07:23:22;7.40;;;3.92;;
58468;SDS011;44257;44.804;10.220;2023-03-12T07:25:48;9.73;;;3.85;;
58468;SDS011;44257;44.804;10.220;2023-03-12T07:28:14;7.82;;;3.25;;
58468;SDS011;44257;44.804;10.220;2023-03-12T07:30:42;238.95;;;24.38;;
58468;SDS011;44257;44.804;10.220;2023-03-12T07:33:14;10.45;;;3.92;;
58468;SDS011;44257;44.804;10.220;2023-03-12T07:35:42;7.43;;;3.47;;
58468;SDS011;44257;44.804;10.220;2023-03-12T07:38:08;8.07;;;4.32;;
58468;SDS011;44257;44.804;10.220;2023-03-12T07:40:34;9.00;;;5.07;;
58468;SDS011;44257;44.804;10.220;2023-03-12T07:43:01;9.65;;;3.45;;
58468;SDS011;44257;44.804;10.220;2023-03-12T07:45:30;5.00;;;2.95;;
58468;SDS011;44257;44.804;10.220;2023-03-12T07:47:56;7.57;;;3.90;;
58468;SDS011;44257;44.804;10.220;2023-03-12T07:50:22;7.07;;;3.53;;
58468;SDS011;44257;44.804;10.220;2023-03-12T07:52:48;6.43;;;3.30;;
58468;SDS011;44257;44.804;10.220;2023-03-12T07:55:14;7.10;;;3.28;;
58468;SDS011;44257;44.804;10.220;2023-03-12T07:57:40;6.47;;;3.67;;
58468;SDS011;44257;44.804;10.220;2023-03-12T08:00:06;6.63;;;3.13;;
58468;SDS011;44257;44.804;10.220;2023-03-12T08:02:37;6.90;;;3.42;;
58468;SDS011;44257;44.804;10.220;2023-03-12T08:05:03;8.63;;;3.55;;
58468;SDS011;44257;44.804;10.220;2023-03-12T08:07:30;8.38;;;3.50;;
58468;SDS011;44257;44.804;10.220;2023-03-12T08:10:00;10.00;;;3.40;;
58468;SDS011;44257;44.804;10.220;2023-03-12T08:12:27;6.20;;;3.22;;
58468;SDS011;44257;44.804;10.220;2023-03-12T08:14:53;7.07;;;3.50;;
58468;SDS011;44257;44.804;10.220;2023-03-12T08:17:19;8.90;;;3.58;;
58468;SDS011;44257;44.804;10.220;2023-03-12T08:19:45;5.90;;;3.78;;
58468;SDS011;44257;44.804;10.220;2023-03-12T08:22:10;7.65;;;3.05;;
58468;SDS011;44257;44.804;10.220;2023-03-12T08:24:36;6.75;;;3.20;;
58468;SDS011;44257;44.804;10.220;2023-03-12T08:27:02;5.75;;;3.53;;
58468;SDS011;44257;44.804;10.220;2023-03-12T08:29:28;8.10;;;3.17;;
58468;SDS011;44257;44.804;10.220;2023-03-12T08:31:54;6.32;;;3.90;;
58468;SDS011;44257;44.804;10.220;2023-03-12T08:34:20;9.00;;;3.60;;
58468;SDS011;44257;44.804;10.220;2023-03-12T08:36:46;7.95;;;3.30;;
58468;SDS011;44257;44.804;10.220;2023-03-12T08:39:12;8.27;;;2.88;;
58468;SDS011;44257;44.804;10.220;2023-03-12T08:41:37;15.57;;;3.83;;
58468;SDS011;44257;44.804;10.220;2023-03-12T08:44:03;10.95;;;3.60;;
58468;SDS011;44257;44.804;10.220;2023-03-12T08:46:29;7.80;;;3.30;;
58468;SDS011;44257;44.804;10.220;2023-03-12T08:48:55;6.85;;;3.65;;
58468;SDS011;44257;44.804;10.220;2023-03-12T08:51:21;6.38;;;3.53;;
58468;SDS011;44257;44.804;10.220;2023-03-12T08:53:46;4.93;;;2.78;;
58468;SDS011;44257;44.804;10.220;2023-03-12T08:56:12;7.35;;;2.75;;
58468;SDS011;44257;44.804;10.220;2023-03-12T08:58:38;7.90;;;2.83;;
58468;SDS011;44257;44.804;10.220;2023-03-12T09:01:10;5.78;;;3.20;;
58468;SDS011;44257;44.804;10.220;2023-03-12T09:03:37;7.65;;;3.20;;
58468;SDS011;44257;44.804;10.220;2023-03-12T09:06:06;5.13;;;2.75;;
58468;SDS011;44257;44.804;10.220;2023-03-12T09:08:37;5.88;;;2.58;;
58468;SDS011;44257;44.804;10.220;2023-03-12T09:11:04;11.07;;;3.20;;
58468;SDS011;44257;44.804;10.220;2023-03-12T09:13:30;9.25;;;3.60;;
58468;SDS011;44257;44.804;10.220;2023-03-12T09:16:02;6.82;;;2.70;;
58468;SDS011;44257;44.804;10.220;2023-03-12T09:18:29;11.88;;;4.20;;
58468;SDS011;44257;44.804;10.220;2023-03-12T09:20:56;8.75;;;4.15;;
58468;SDS011;44257;44.804;10.220;2023-03-12T09:23:22;9.45;;;2.90;;
58468;SDS011;44257;44.804;10.220;2023-03-12T09:25:48;5.43;;;3.08;;
58468;SDS011;44257;44.804;10.220;2023-03-12T09:28:15;6.13;;;2.42;;
58468;SDS011;44257;44.804;10.220;2023-03-12T09:30:41;8.35;;;2.75;;
58468;SDS011;44257;44.804;10.220;2023-03-12T09:33:07;7.40;;;2.70;;
58468;SDS011;44257;44.804;10.220;2023-03-12T09:35:33;4.72;;;2.60;;
58468;SDS011;44257;44.804;10.220;2023-03-12T09:37:59;9.60;;;3.03;;
58468;SDS011;44257;44.804;10.220;2023-03-12T09:40:26;7.82;;;2.90;;
58468;SDS011;44257;44.804;10.220;2023-03-12T09:43:05;6.60;;;2.50;;
58468;SDS011;44257;44.804;10.220;2023-03-12T09:45:37;7.35;;;2.88;;
58468;SDS011;44257;44.804;10.220;2023-03-12T09:48:14;7.53;;;2.60;;
58468;SDS011;44257;44.804;10.220;2023-03-12T09:50:45;8.52;;;2.42;;
58468;SDS011;44257;44.804;10.220;2023-03-12T09:56:14;12.07;;;2.60;;
58468;SDS011;44257;44.804;10.220;2023-03-12T09:58:42;7.60;;;2.40;;
58468;SDS011;44257;44.804;10.220;2023-03-12T10:18:41;9.70;;;2.63;;
58468;SDS011;44257;44.804;10.220;2023-03-12T10:21:09;6.28;;;2.13;;
58468;SDS011;44257;44.804;10.220;2023-03-12T10:26:23;6.63;;;2.10;;
58468;SDS011;44257;44.804;10.220;2023-03-12T10:28:59;6.38;;;2.17;;
58468;SDS011;44257;44.804;10.220;2023-03-12T10:31:35;6.68;;;2.70;;
58468;SDS011;44257;44.804;10.220;2023-03-12T10:34:22;5.90;;;2.63;;
58468;SDS011;44257;44.804;10.220;2023-03-12T10:39:46;8.18;;;2.97;;
58468;SDS011;44257;44.804;10.220;2023-03-12T10:42:14;15.07;;;3.55;;
58468;SDS011;44257;44.804;10.220;2023-03-12T10:44:45;7.20;;;3.03;;
58468;SDS011;44257;44.804;10.220;2023-03-12T10:47:24;10.07;;;3.20;;
58468;SDS011;44257;44.804;10.220;2023-03-12T10:50:11;9.95;;;3.17;;
58468;SDS011;44257;44.804;10.220;2023-03-12T10:52:50;9.18;;;3.50;;
58468;SDS011;44257;44.804;10.220;2023-03-12T10:55:24;10.88;;;4.13;;
58468;SDS011;44257;44.804;10.220;2023-03-12T10:57:54;10.50;;;3.50;;
58468;SDS011;44257;44.804;10.220;2023-03-12T11:00:22;7.57;;;3.40;;
58468;SDS011;44257;44.804;10.220;2023-03-12T11:02:55;9.55;;;3.55;;
58468;SDS011;44257;44.804;10.220;2023-03-12T11:05:25;8.48;;;3.42;;
58468;SDS011;44257;44.804;10.220;2023-03-12T11:07:54;6.85;;;3.45;;
58468;SDS011;44257;44.804;10.220;2023-03-12T11:10:22;10.15;;;4.22;;
58468;SDS011;44257;44.804;10.220;2023-03-12T11:13:33;7.32;;;3.88;;
58468;SDS011;44257;44.804;10.220;2023-03-12T11:15:55;13.18;;;3.60;;
58468;SDS011;44257;44.804;10.220;2023-03-12T11:21:10;8.82;;;3.67;;
58468;SDS011;44257;44.804;10.220;2023-03-12T11:24:21;11.05;;;4.85;;
58468;SDS011;44257;44.804;10.220;2023-03-12T11:26:46;12.05;;;4.30;;
58468;SDS011;44257;44.804;10.220;2023-03-12T11:29:27;7.80;;;3.90;;
58468;SDS011;44257;44.804;10.220;2023-03-12T11:34:35;9.73;;;3.20;;
58468;SDS011;44257;44.804;10.220;2023-03-12T11:37:09;7.43;;;3.97;;
58468;SDS011;44257;44.804;10.220;2023-03-12T11:39:49;10.35;;;3.63;;
58468;SDS011;44257;44.804;10.220;2023-03-12T11:44:58;9.02;;;4.65;;
58468;SDS011;44257;44.804;10.220;2023-03-12T11:47:48;11.18;;;4.30;;
58468;SDS011;44257;44.804;10.220;2023-03-12T12:11:45;8.80;;;3.20;;
58468;SDS011;44257;44.804;10.220;2023-03-12T12:25:37;10.70;;;4.13;;
58468;SDS011;44257;44.804;10.220;2023-03-12T12:36:26;7.35;;;3.38;;
58468;SDS011;44257;44.804;10.220;2023-03-12T12:38:59;8.90;;;4.07;;
58468;SDS011;44257;44.804;10.220;2023-03-12T12:41:33;7.97;;;3.60;;
58468;SDS011;44257;44.804;10.220;2023-03-12T12:44:09;9.07;;;3.78;;
58468;SDS011;44257;44.804;10.220;2023-03-12T12:46:40;10.52;;;3.83;;
58468;SDS011;44257;44.804;10.220;2023-03-12T12:51:43;8.57;;;3.33;;
58468;SDS011;44257;44.804;10.220;2023-03-12T12:56:51;8.10;;;3.92;;
58468;SDS011;44257;44.804;10.220;2023-03-12T12:59:35;8.27;;;4.03;;
58468;SDS011;44257;44.804;10.220;2023-03-12T13:02:21;6.22;;;3.50;;
58468;SDS011;44257;44.804;10.220;2023-03-12T13:04:53;9.20;;;3.13;;
58468;SDS011;44257;44.804;10.220;2023-03-12T13:09:48;8.77;;;4.10;;
58468;SDS011;44257;44.804;10.220;2023-03-12T13:15:31;5.93;;;3.40;;
58468;SDS011;44257;44.804;10.220;2023-03-12T13:20:44;10.25;;;4.45;;
58468;SDS011;44257;44.804;10.220;2023-03-12T13:28:54;9.88;;;4.60;;
58468;SDS011;44257;44.804;10.220;2023-03-12T13:31:36;6.85;;;3.90;;
58468;SDS011;44257;44.804;10.220;2023-03-12T13:34:28;8.88;;;4.47;;
58468;SDS011;44257;44.804;10.220;2023-03-12T13:36:54;8.77;;;3.05;;
58468;SDS011;44257;44.804;10.220;2023-03-12T13:39:32;6.40;;;3.28;;
58468;SDS011;44257;44.804;10.220;2023-03-12T13:42:01;5.95;;;3.50;;
58468;SDS011;44257;44.804;10.220;2023-03-12T13:44:50;6.38;;;3.20;;
58468;SDS011;44257;44.804;10.220;2023-03-12T13:47:50;8.57;;;3.45;;
58468;SDS011;44257;44.804;10.220;2023-03-12T13:50:14;9.98;;;3.80;;
58468;SDS011;44257;44.804;10.220;2023-03-12T13:52:45;6.65;;;3.83;;
58468;SDS011;44257;44.804;10.220;2023-03-12T13:55:23;6.60;;;3.55;;
58468;SDS011;44257;44.804;10.220;2023-03-12T13:58:05;9.85;;;3.85;;
58468;SDS011;44257;44.804;10.220;2023-03-12T14:01:02;6.78;;;3.55;;
58468;SDS011;44257;44.804;10.220;2023-03-12T14:03:38;10.82;;;3.70;;
58468;SDS011;44257;44.804;10.220;2023-03-12T14:06:08;9.63;;;3.90;;
58468;SDS011;44257;44.804;10.220;2023-03-12T14:11:37;15.23;;;5.78;;
58468;SDS011;44257;44.804;10.220;2023-03-12T14:17:16;8.05;;;3.47;;
58468;SDS011;44257;44.804;10.220;2023-03-12T14:19:46;11.43;;;3.97;;
58468;SDS011;44257;44.804;10.220;2023-03-12T14:22:16;9.98;;;3.60;;
58468;SDS011;44257;44.804;10.220;2023-03-12T14:24:49;7.00;;;3.03;;
58468;SDS011;44257;44.804;10.220;2023-03-12T14:27:25;7.95;;;4.50;;
58468;SDS011;44257;44.804;10.220;2023-03-12T14:29:56;6.25;;;3.50;;
58468;SDS011;44257;44.804;10.220;2023-03-12T14:32:32;12.88;;;3.90;;
58468;SDS011;44257;44.804;10.220;2023-03-12T14:40:27;9.65;;;3.25;;
58468;SDS011;44257;44.804;10.220;2023-03-12T14:42:58;8.50;;;3.92;;
58468;SDS011;44257;44.804;10.220;2023-03-12T14:45:25;10.40;;;3.47;;
58468;SDS011;44257;44.804;10.220;2023-03-12T14:47:53;8.30;;;3.80;;
58468;SDS011;44257;44.804;10.220;2023-03-12T14:50:25;6.10;;;3.47;;
58468;SDS011;44257;44.804;10.220;2023-03-12T14:52:54;6.75;;;4.05;;
58468;SDS011;44257;44.804;10.220;2023-03-12T14:55:34;6.95;;;3.50;;
58468;SDS011;44257;44.804;10.220;2023-03-12T14:58:04;5.28;;;3.05;;
58468;SDS011;44257;44.804;10.220;2023-03-12T15:00:38;10.15;;;3.95;;
58468;SDS011;44257;44.804;10.220;2023-03-12T15:03:04;9.23;;;3.72;;
58468;SDS011;44257;44.804;10.220;2023-03-12T15:05:43;7.95;;;3.25;;
58468;SDS011;44257;44.804;10.220;2023-03-12T15:08:13;5.45;;;3.70;;
58468;SDS011;44257;44.804;10.220;2023-03-12T15:10:40;7.82;;;3.92;;
58468;SDS011;44257;44.804;10.220;2023-03-12T15:13:13;10.75;;;3.45;;
58468;SDS011;44257;44.804;10.220;2023-03-12T15:15:41;6.63;;;3.65;;
58468;SDS011;44257;44.804;10.220;2023-03-12T15:18:21;6.00;;;3.30;;
58468;SDS011;44257;44.804;10.220;2023-03-12T15:20:55;6.47;;;3.25;;
58468;SDS011;44257;44.804;10.220;2023-03-12T15:23:23;9.73;;;3.90;;
58468;SDS011;44257;44.804;10.220;2023-03-12T15:26:07;7.07;;;3.42;;
58468;SDS011;44257;44.804;10.220;2023-03-12T15:28:38;5.90;;;3.38;;
58468;SDS011;44257;44.804;10.220;2023-03-12T15:31:13;6.95;;;3.22;;
58468;SDS011;44257;44.804;10.220;2023-03-12T15:33:44;9.57;;;3.70;;
58468;SDS011;44257;44.804;10.220;2023-03-12T15:36:23;10.05;;;3.33;;
58468;SDS011;44257;44.804;10.220;2023-03-12T15:38:55;8.80;;;3.53;;
58468;SDS011;44257;44.804;10.220;2023-03-12T15:41:35;6.15;;;2.97;;
58468;SDS011;44257;44.804;10.220;2023-03-12T15:44:15;10.77;;;4.10;;
58468;SDS011;44257;44.804;10.220;2023-03-12T15:46:53;7.93;;;3.45;;
58468;SDS011;44257;44.804;10.220;2023-03-12T15:50:03;6.72;;;2.97;;
58468;SDS011;44257;44.804;10.220;2023-03-12T15:52:56;5.30;;;3.63;;
58468;SDS011;44257;44.804;10.220;2023-03-12T15:55:26;9.60;;;3.15;;
58468;SDS011;44257;44.804;10.220;2023-03-12T15:57:57;7.68;;;3.30;;
58468;SDS011;44257;44.804;10.220;2023-03-12T16:03:15;5.65;;;2.67;;
58468;SDS011;44257;44.804;10.220;2023-03-12T16:05:45;9.57;;;3.15;;
58468;SDS011;44257;44.804;10.220;2023-03-12T16:10:42;6.88;;;3.08;;
58468;SDS011;44257;44.804;10.220;2023-03-12T16:13:09;9.73;;;3.72;;
58468;SDS011;44257;44.804;10.220;2023-03-12T16:15:40;8.10;;;2.72;;
58468;SDS011;44257;44.804;10.220;2023-03-12T16:18:10;5.70;;;2.60;;
58468;SDS011;44257;44.804;10.220;2023-03-12T16:20:39;8.35;;;2.95;;
58468;SDS011;44257;44.804;10.220;2023-03-12T16:23:05;8.93;;;3.13;;
58468;SDS011;44257;44.804;10.220;2023-03-12T16:25:31;5.65;;;2.75;;
58468;SDS011;44257;44.804;10.220;2023-03-12T16:27:59;5.68;;;2.67;;
58468;SDS011;44257;44.804;10.220;2023-03-12T16:32:56;5.55;;;3.38;;
58468;SDS011;44257;44.804;10.220;2023-03-12T16:35:23;7.85;;;3.05;;
58468;SDS011;44257;44.804;10.220;2023-03-12T16:37:51;5.95;;;2.88;;
58468;SDS011;44257;44.804;10.220;2023-03-12T16:40:17;6.82;;;2.65;;